Seattle, Washington
Traffic Map
Current Weather Conditions
Seattle, Washington
Overcast
Overcast
50°
Feels Like: 50°
Wind Chill: 50° Ceiling: 3500
Heat Index: 50° Visibility: 9mi
Dew Point: 42° Wind: 20mph
Humidity: 74% Direction: 170° (S)
Pressure: 30.11in Gusts: 28mph
Raw Report DataKBFI 231253Z 17017G24KT 9SM BKN035 BKN050 OVC065 10/06 A3011 RMK AO2 RAE42 SLP194 P0003 T01000056
Traffic Incident Summary
Active as of:
Severity:
Category:
InformationThere was an issue retrieving the traffic information for this location. Please try a different location or try again shortly.
Advertisements
Track Severe Weather on mobile